M I D A S
Marine Information and Data Acquisition System
Tripno 257 of the Zeeleeuw from 2001-12-07 06:15:00 to 2001-12-07 16:30:00
Back to CruiseResearch ActivitiesStationsMapUnderway DataData graphs

EquipmentUnitsComment
TimeDGPSUTC
LatitudeDGPSDM.mWGS84
LongitudeDGPSDM.mWGS84
HeadingGyrodeg 
SOGDGPSknotsSpeed over ground
COGDGPSdegCourse over ground
DepthEcho soundermeters200 kHz
Missing or incorrect values are displayed as -999
Navigation data collected by the RV Zeeleeuw from 2001-12-07 06:15:00 to 2001-12-07 16:30:00
                                                                                    Next 1000 lines
Time Latitude Longitude Heading SOG COG Depth
2001-12-07 08:31:04 51°15.6 2°54.496 358 14 354 9.5
2001-12-07 08:31:09 51°15.619 2°54.493 358.5 14 354 9.5
2001-12-07 08:31:14 51°15.638 2°54.49 358.5 14 354.1 9.6
2001-12-07 08:31:19 51°15.657 2°54.486 357.5 13.9 353.3 9.6
2001-12-07 08:31:24 51°15.676 2°54.482 356.8 13.9 352.3 9.7
2001-12-07 08:31:29 51°15.695 2°54.477 355.8 13.8 351.5 9.8
2001-12-07 08:31:35 51°15.718 2°54.47 354.7 13.9 350.1 9.9
2001-12-07 08:31:39 51°15.733 2°54.466 354 13.9 349.3 9.9
2001-12-07 08:31:44 51°15.752 2°54.459 352.7 13.9 348.1 10
2001-12-07 08:31:49 51°15.771 2°54.452 351.3 14 346.7 10.1
2001-12-07 08:31:56 51°15.797 2°54.44 349.5 13.9 344.9 10.2
2001-12-07 08:31:59 51°15.808 2°54.434 347.3 13.9 343.3 10.3
2001-12-07 08:32:05 51°15.83 2°54.422 346.2 13.9 341.5 10.3
2001-12-07 08:32:09 51°15.844 2°54.414 346.3 14 341.2 10.4
2001-12-07 08:32:14 51°15.863 2°54.405 347.5 14 342 10.5
2001-12-07 08:32:19 51°15.882 2°54.397 349.2 14 343.5 10.4
2001-12-07 08:32:24 51°15.901 2°54.389 350.7 14 345.1 10.2
2001-12-07 08:32:29 51°15.919 2°54.382 351.7 14 346.6 10.5
2001-12-07 08:32:35 51°15.942 2°54.375 354.2 14 348.5 10.7
2001-12-07 08:32:39 51°15.958 2°54.371 355.3 13.9 349.8 10.8
2001-12-07 08:32:45 51°15.981 2°54.366 355.8 13.9 350.8 10.8
2001-12-07 08:32:50 51°16 2°54.361 356 13.9 351 10.9
2001-12-07 08:32:56 51°16.023 2°54.355 355.5 13.9 350.8 10.9
2001-12-07 08:33:00 51°16.038 2°54.351 355.5 13.9 350.8 10.9
2001-12-07 08:33:03 51°16.049 2°54.348 355.7 13.7 350.9 11
2001-12-07 08:33:09 51°16.07 2°54.343 356 13.3 350.9 11
2001-12-07 08:33:14 51°16.087 2°54.339 356.2 12.9 351.1 11.1
2001-12-07 08:33:20 51°16.107 2°54.334 356.7 12.4 351.4 11.2
2001-12-07 08:33:24 51°16.12 2°54.331 357.3 11.8 352 11.2
2001-12-07 08:33:29 51°16.135 2°54.328 357.8 11.3 352.6 11.4
2001-12-07 08:33:35 51°16.152 2°54.325 358.7 10.8 353.2 11.3
2001-12-07 08:33:39 51°16.164 2°54.323 359.5 10.4 353.9 11.4
2001-12-07 08:33:45 51°16.179 2°54.321 1 9.7 355.2 11.4
2001-12-07 08:33:49 51°16.189 2°54.321 2.5 9 357 11.4
2001-12-07 08:33:55 51°16.202 2°54.32 4.8 8.4 358.6 11.4
2001-12-07 08:34:00 51°16.212 2°54.321 8.2 8 359.9 11.4
2001-12-07 08:34:04 51°16.22 2°54.321 10.7 7.2 1.8 11.5
2001-12-07 08:34:09 51°16.227 2°54.322 9.3 6.3 3.1 11.4
2001-12-07 08:34:15 51°16.236 2°54.322 6.8 5.4 1 11.5
2001-12-07 08:34:19 51°16.241 2°54.322 3.7 4.7 358.8 11.6
2001-12-07 08:34:25 51°16.247 2°54.321 2.5 4 357 11.6
2001-12-07 08:34:29 51°16.25 2°54.321 5.2 3.2 356 11.6
2001-12-07 08:34:33 51°16.252 2°54.321 9 2.4 354.3 11.6
2001-12-07 08:34:39 51°16.255 2°54.32 12.3 2 354.4 11.6
2001-12-07 08:34:45 51°16.258 2°54.32 13.8 1.7 354.7 11.6
2001-12-07 08:34:49 51°16.26 2°54.319 15 1.5 353.7 11.6
2001-12-07 08:34:55 51°16.261 2°54.318 16.2 1.3 349.8 11.6
2001-12-07 08:34:59 51°16.262 2°54.318 16.3 1 342.8 11.6
2001-12-07 08:35:05 51°16.263 2°54.317 16.8 0.8 335.5 11.6
2001-12-07 08:35:10 51°16.264 2°54.316 17.3 0.7 334.1 11.6
2001-12-07 08:35:14 51°16.265 2°54.316 18.2 0.8 334.5 11.6
2001-12-07 08:35:20 51°16.266 2°54.315 19 0.7 333.1 11.6
2001-12-07 08:35:24 51°16.267 2°54.314 19.7 0.6 318.8 11.6
2001-12-07 08:35:30 51°16.267 2°54.313 20.2 0.5 298.1 11.5
2001-12-07 08:35:34 51°16.266 2°54.311 20.7 0.7 259.2 11.6
2001-12-07 08:35:40 51°16.265 2°54.309 21.2 0.8 241.1 11.6
2001-12-07 08:35:45 51°16.265 2°54.307 21 1 236.7 11.6
2001-12-07 08:35:49 51°16.264 2°54.306 20.8 1 236.4 11.6
2001-12-07 08:35:55 51°16.263 2°54.304 21 0.9 237.3 5
2001-12-07 08:36:00 51°16.263 2°54.302 20.7 0.8 242.7 -999
2001-12-07 08:36:06 51°16.263 2°54.3 19.2 0.8 250.7 -999
2001-12-07 08:36:10 51°16.264 2°54.3 16.8 0.7 309.5 -999
2001-12-07 08:36:15 51°16.266 2°54.299 12.7 1.1 339.1 -999
2001-12-07 08:36:20 51°16.268 2°54.298 8.5 1.6 348.2 9.8
2001-12-07 08:36:25 51°16.27 2°54.297 4.8 1.7 348.9 11.6
2001-12-07 08:36:30 51°16.273 2°54.297 2.3 1.7 348.1 11.6
2001-12-07 08:36:35 51°16.275 2°54.296 359.7 1.7 346.6 11.6
2001-12-07 08:36:39 51°16.277 2°54.295 357.7 1.7 344.4 11.6
2001-12-07 08:36:44 51°16.279 2°54.294 356.2 1.7 342.8 11.6
2001-12-07 08:36:49 51°16.281 2°54.293 355.2 1.6 340.6 11.6
2001-12-07 08:36:55 51°16.282 2°54.292 353.8 1.2 338.1 11.6
2001-12-07 08:36:59 51°16.283 2°54.291 352.7 0.9 329.8 11.6
2001-12-07 08:37:05 51°16.283 2°54.29 352 0.5 310.6 11.5
2001-12-07 08:37:09 51°16.283 2°54.289 351.2 0.4 296.5 11.6
2001-12-07 08:37:14 51°16.284 2°54.289 350.7 0.4 300.5 11.6
2001-12-07 08:37:19 51°16.284 2°54.288 350 0.4 305.9 11.6
2001-12-07 08:37:25 51°16.284 2°54.287 349.3 0.4 307.8 11.6
2001-12-07 08:37:30 51°16.285 2°54.286 349 0.4 306.7 11.6
2001-12-07 08:37:35 51°16.285 2°54.285 348.5 0.4 307 11.6
2001-12-07 08:37:39 51°16.286 2°54.285 348.2 0.4 310.2 11.5
2001-12-07 08:37:45 51°16.286 2°54.284 347.8 0.4 312.3 11.5
2001-12-07 08:37:49 51°16.286 2°54.283 347.7 0.5 312.3 11.6
2001-12-07 08:37:55 51°16.287 2°54.282 347.5 0.5 313.6 11.6
2001-12-07 08:37:59 51°16.287 2°54.282 347.5 0.5 315.4 11.6
2001-12-07 08:38:05 51°16.288 2°54.281 347.2 0.6 315 11.5
2001-12-07 08:38:09 51°16.289 2°54.28 347.3 0.6 313.1 11.6
2001-12-07 08:38:14 51°16.289 2°54.279 347.3 0.6 317.5 11.6
2001-12-07 08:38:19 51°16.29 2°54.278 347.2 0.6 314.8 11.6
2001-12-07 08:38:25 51°16.29 2°54.277 347.3 0.6 316.3 11.6
2001-12-07 08:38:29 51°16.291 2°54.276 347.3 0.6 316.8 11.6
2001-12-07 08:38:35 51°16.292 2°54.275 347.3 0.6 316.4 11.6
2001-12-07 08:38:40 51°16.292 2°54.274 347.7 0.7 316.4 11.6
2001-12-07 08:38:45 51°16.293 2°54.273 347.8 0.7 315.7 11.6
2001-12-07 08:38:49 51°16.294 2°54.272 348 0.7 316.2 11.6
2001-12-07 08:38:55 51°16.295 2°54.271 348.3 0.7 318.1 11.6
2001-12-07 08:38:59 51°16.295 2°54.27 348.5 0.7 317 11.6
2001-12-07 08:39:04 51°16.296 2°54.269 348.8 0.7 318.5 11.6
2001-12-07 08:39:10 51°16.297 2°54.267 349.2 0.7 317.4 11.6
2001-12-07 08:39:15 51°16.298 2°54.266 349.7 0.7 320.4 11.6
2001-12-07 08:39:19 51°16.298 2°54.265 350 0.8 318.2 11.6
2001-12-07 08:39:25 51°16.299 2°54.264 350.5 0.8 319.9 11.6
2001-12-07 08:39:29 51°16.3 2°54.263 351 0.8 319.3 11.6
2001-12-07 08:39:34 51°16.301 2°54.262 351.5 0.8 323.1 11.6
2001-12-07 08:39:39 51°16.302 2°54.261 352 0.8 322.8 11.6
2001-12-07 08:39:44 51°16.303 2°54.26 352.5 0.9 322 11.4
2001-12-07 08:39:50 51°16.304 2°54.259 353.2 0.8 323.4 11.6
2001-12-07 08:39:53 51°16.305 2°54.258 353.5 0.8 324 11.6
2001-12-07 08:39:59 51°16.306 2°54.257 354.2 0.8 325.5 11.6
2001-12-07 08:40:04 51°16.307 2°54.256 354.7 0.9 325.7 11.6
2001-12-07 08:40:10 51°16.308 2°54.254 355.5 0.9 326.1 11.6
2001-12-07 08:40:15 51°16.309 2°54.253 356.2 0.9 326.5 11.5
2001-12-07 08:40:19 51°16.31 2°54.252 356.8 0.9 326.6 11.6
2001-12-07 08:40:24 51°16.311 2°54.251 357.8 0.9 328.2 11.6
2001-12-07 08:40:30 51°16.312 2°54.25 358.7 0.9 327.3 11.6
2001-12-07 08:40:35 51°16.313 2°54.249 359.5 0.9 330.7 11.5
2001-12-07 08:40:39 51°16.314 2°54.248 0.3 0.9 328.8 11.6
2001-12-07 08:40:45 51°16.315 2°54.247 1.5 0.9 329.7 11.6
2001-12-07 08:40:49 51°16.316 2°54.246 2.5 0.9 328.3 11.6
2001-12-07 08:40:54 51°16.317 2°54.246 3.5 0.9 331.9 11.7
2001-12-07 08:40:59 51°16.318 2°54.244 4.3 0.9 330.2 11.7
2001-12-07 08:41:05 51°16.32 2°54.243 5.7 0.9 333.6 11.6
2001-12-07 08:41:09 51°16.321 2°54.243 6.5 0.9 332.9 11.6
2001-12-07 08:41:14 51°16.322 2°54.242 7.7 0.9 334.3 11.7
2001-12-07 08:41:19 51°16.323 2°54.241 8.5 1 333.3 11.6
2001-12-07 08:41:24 51°16.324 2°54.24 9.7 0.9 333.4 11.7
2001-12-07 08:41:29 51°16.325 2°54.239 10.7 0.9 334.9 11.6
2001-12-07 08:41:34 51°16.326 2°54.239 11.7 0.9 337.1 11.6
2001-12-07 08:41:40 51°16.328 2°54.238 12.5 0.9 335.1 11.6
2001-12-07 08:41:45 51°16.329 2°54.237 13.7 0.9 337.8 11.6
2001-12-07 08:41:49 51°16.33 2°54.236 14.7 0.9 337.9 11.6
2001-12-07 08:41:55 51°16.331 2°54.236 15.5 0.9 337.8 11.6
2001-12-07 08:41:59 51°16.332 2°54.235 16.3 0.9 336.7 11.7
2001-12-07 08:42:05 51°16.333 2°54.234 17.3 0.9 337.4 11.6
2001-12-07 08:42:10 51°16.334 2°54.234 18.3 0.9 339.3 11.6
2001-12-07 08:42:15 51°16.335 2°54.233 19 0.9 339.5 11.6
2001-12-07 08:42:19 51°16.336 2°54.232 19.7 0.9 338 11.6
2001-12-07 08:42:25 51°16.338 2°54.231 20.5 0.8 339.3 11.6
2001-12-07 08:42:29 51°16.338 2°54.231 21.2 0.8 339.9 11.7
2001-12-07 08:42:34 51°16.34 2°54.23 21.8 0.8 341 11.7
2001-12-07 08:42:40 51°16.341 2°54.23 22.5 0.8 341.6 11.7
2001-12-07 08:42:45 51°16.342 2°54.229 23.2 0.9 340.1 11.7
2001-12-07 08:42:49 51°16.343 2°54.228 24 0.9 339.8 11.7
2001-12-07 08:42:54 51°16.344 2°54.228 24.5 0.8 340.3 11.7
2001-12-07 08:42:59 51°16.345 2°54.227 25 0.8 342.1 11.5
2001-12-07 08:43:04 51°16.346 2°54.227 25.7 0.8 342.8 11.6
2001-12-07 08:43:09 51°16.347 2°54.226 26.3 0.8 341.6 11.6
2001-12-07 08:43:14 51°16.348 2°54.226 27 0.8 341.2 11.7
2001-12-07 08:43:20 51°16.35 2°54.225 27.5 0.8 341.7 11.6
2001-12-07 08:43:25 51°16.351 2°54.225 28.2 0.8 343.5 11.7
2001-12-07 08:43:29 51°16.352 2°54.224 28.5 0.8 343.4 11.6
2001-12-07 08:43:35 51°16.353 2°54.224 29 0.8 344.6 11.6
2001-12-07 08:43:39 51°16.353 2°54.223 29.7 0.8 342.3 10.1
2001-12-07 08:43:44 51°16.354 2°54.223 30.7 0.8 343.6 8.4
2001-12-07 08:43:49 51°16.355 2°54.222 31.2 0.7 343.3 7.8
2001-12-07 08:43:55 51°16.356 2°54.222 31.7 0.8 342.2 8
2001-12-07 08:43:59 51°16.357 2°54.221 32.5 0.7 343.2 9.6
2001-12-07 08:44:05 51°16.358 2°54.221 33 0.7 343.2 11.1
2001-12-07 08:44:09 51°16.359 2°54.22 33.7 0.7 343.2 11.5
2001-12-07 08:44:15 51°16.36 2°54.22 34.3 0.7 344.3 11.6
2001-12-07 08:44:19 51°16.361 2°54.22 35 0.7 344.1 11.6
2001-12-07 08:44:25 51°16.362 2°54.219 35.7 0.7 344.7 11.6
2001-12-07 08:44:34 51°16.364 2°54.219 36.8 0.7 343.6 11.6
2001-12-07 08:44:39 51°16.365 2°54.218 37.5 0.7 345.6 11.6
2001-12-07 08:44:45 51°16.366 2°54.218 38 0.7 344.6 11.6
2001-12-07 08:44:50 51°16.367 2°54.218 38.7 0.6 347.4 11.6
2001-12-07 08:44:55 51°16.368 2°54.217 39.2 0.7 346.5 11.6
2001-12-07 08:45:00 51°16.369 2°54.217 39.8 0.7 345.6 11.6
2001-12-07 08:45:05 51°16.369 2°54.217 40.5 0.7 347.1 11.6
2001-12-07 08:45:09 51°16.37 2°54.216 41 0.7 346 11.5
2001-12-07 08:45:15 51°16.371 2°54.216 41.8 0.6 347.3 11.6
2001-12-07 08:45:20 51°16.372 2°54.216 42 0.7 346.7 11.6
2001-12-07 08:45:24 51°16.373 2°54.216 42.5 0.6 350.1 11.6
2001-12-07 08:45:29 51°16.374 2°54.215 42.8 0.7 346.8 11.6
2001-12-07 08:45:35 51°16.375 2°54.215 43.7 0.6 347.2 11.5
2001-12-07 08:45:39 51°16.375 2°54.214 44 0.6 345.6 11.6
2001-12-07 08:45:44 51°16.376 2°54.214 44.5 0.6 348.8 11.6
2001-12-07 08:45:50 51°16.377 2°54.214 45 0.6 349 11.6
2001-12-07 08:45:55 51°16.378 2°54.214 45.3 0.6 350.8 11.6
2001-12-07 08:45:59 51°16.379 2°54.213 46.2 0.6 348.3 11.6
2001-12-07 08:46:04 51°16.379 2°54.213 47.2 0.6 347.5 11.6
2001-12-07 08:46:08 51°16.38 2°54.213 47.8 0.6 349.1 11.4
2001-12-07 08:46:15 51°16.381 2°54.213 48.3 0.6 348.3 11.6
2001-12-07 08:46:20 51°16.382 2°54.212 48.7 0.6 348.8 11.6
2001-12-07 08:46:24 51°16.383 2°54.212 49.3 0.6 347.2 11.6
2001-12-07 08:46:30 51°16.383 2°54.212 49.7 0.6 347.4 11.6
2001-12-07 08:46:34 51°16.384 2°54.212 49.7 0.6 347.2 11.5
2001-12-07 08:46:39 51°16.385 2°54.211 49.8 0.6 345.4 11.6
2001-12-07 08:46:45 51°16.386 2°54.211 50.3 0.6 345.4 11.6
2001-12-07 08:46:50 51°16.386 2°54.211 50.5 0.5 347.6 11.6
2001-12-07 08:46:54 51°16.387 2°54.211 50.7 0.6 345.1 11.6
2001-12-07 08:46:59 51°16.388 2°54.21 51.2 0.5 345.5 11.6
2001-12-07 08:47:04 51°16.389 2°54.21 51.2 0.5 344.2 11.6
2001-12-07 08:47:10 51°16.389 2°54.21 51.3 0.5 345.3 11.6
2001-12-07 08:47:15 51°16.39 2°54.21 51.7 0.5 346.1 11.6
2001-12-07 08:47:19 51°16.391 2°54.21 51.8 0.5 346.9 11.6
2001-12-07 08:47:25 51°16.392 2°54.209 52 0.5 346.9 11.6
2001-12-07 08:47:29 51°16.392 2°54.209 52 0.5 349.1 11.6
2001-12-07 08:47:34 51°16.393 2°54.209 51.8 0.5 348.3 11.6
2001-12-07 08:47:39 51°16.394 2°54.209 52.2 0.5 346.7 11.4
2001-12-07 08:47:44 51°16.394 2°54.208 52 0.5 347.2 11.4
2001-12-07 08:47:49 51°16.395 2°54.208 51.8 0.5 350.2 11.6
2001-12-07 08:47:55 51°16.396 2°54.208 52.2 0.5 347.4 11.6
2001-12-07 08:47:59 51°16.396 2°54.207 52.2 0.5 347.9 11.6
2001-12-07 08:48:05 51°16.397 2°54.207 52.2 0.5 347.6 11.4
2001-12-07 08:48:09 51°16.398 2°54.207 51.8 0.5 347.4 11.6
2001-12-07 08:48:15 51°16.399 2°54.207 51.7 0.5 345.5 11.6
2001-12-07 08:48:20 51°16.4 2°54.207 51.8 0.5 349 11.6
2001-12-07 08:48:25 51°16.4 2°54.206 51.5 0.5 347.8 11.6
2001-12-07 08:48:30 51°16.401 2°54.206 51.2 0.5 348.4 11.5
2001-12-07 08:48:35 51°16.402 2°54.206 51.2 0.5 346.8 11.6
2001-12-07 08:48:40 51°16.402 2°54.205 51 0.5 345.7 11.5
2001-12-07 08:48:45 51°16.403 2°54.205 51 0.5 347.2 11.5
2001-12-07 08:48:50 51°16.404 2°54.205 50.7 0.6 346.9 11.5
2001-12-07 08:48:55 51°16.405 2°54.205 50.7 0.5 348 11.6
2001-12-07 08:48:59 51°16.405 2°54.205 50.5 0.5 347.3 11.5
2001-12-07 08:49:05 51°16.406 2°54.204 50.5 0.5 346.1 11.6
2001-12-07 08:49:09 51°16.407 2°54.204 50.3 0.5 348 11.6
2001-12-07 08:49:15 51°16.407 2°54.204 50.2 0.5 346.9 11.6
2001-12-07 08:49:19 51°16.408 2°54.203 50 0.6 346.2 11.3
2001-12-07 08:49:24 51°16.409 2°54.203 49.8 0.6 344.8 11.6
2001-12-07 08:49:29 51°16.41 2°54.203 49.8 0.5 348 11.5
2001-12-07 08:49:35 51°16.41 2°54.203 49.5 0.6 345.1 11.6
2001-12-07 08:49:40 51°16.411 2°54.202 49.5 0.5 345.9 11.6
2001-12-07 08:49:45 51°16.412 2°54.202 49.5 0.6 346.4 11.5
2001-12-07 08:49:49 51°16.413 2°54.202 49.3 0.6 347 11.6
2001-12-07 08:49:55 51°16.414 2°54.201 49.3 0.6 342.9 11.6
2001-12-07 08:49:59 51°16.414 2°54.201 49.2 0.5 347.1 11.6
2001-12-07 08:50:05 51°16.415 2°54.201 49 0.6 347.1 11.6
2001-12-07 08:50:10 51°16.416 2°54.2 48.5 0.6 346.2 11.6
2001-12-07 08:50:15 51°16.417 2°54.2 48.8 0.6 346.1 11.6
2001-12-07 08:50:20 51°16.418 2°54.2 48.7 0.6 346.1 11.6
2001-12-07 08:50:24 51°16.418 2°54.2 48.2 0.7 356.5 11.6
2001-12-07 08:50:29 51°16.42 2°54.2 46.5 0.8 5.2 11.6
2001-12-07 08:50:35 51°16.422 2°54.201 43.7 1.1 14.5 11.6
2001-12-07 08:50:39 51°16.423 2°54.202 39.8 1.4 18.2 11.6
2001-12-07 08:50:45 51°16.426 2°54.204 35.3 1.6 18.4 11.6
2001-12-07 08:50:50 51°16.429 2°54.205 30.7 1.9 16.8 11.6
2001-12-07 08:50:55 51°16.432 2°54.206 25.3 2.1 14.9 11.5
2001-12-07 08:51:00 51°16.435 2°54.207 20.2 2.3 11.3 11.6
2001-12-07 08:51:04 51°16.438 2°54.207 15.3 2.5 6.2 11.6
2001-12-07 08:51:10 51°16.443 2°54.207 10.2 2.7 2.5 11.6
2001-12-07 08:51:14 51°16.446 2°54.207 3.7 2.8 358 11.6
2001-12-07 08:51:19 51°16.45 2°54.206 358 2.9 352.7 11.6
2001-12-07 08:51:25 51°16.455 2°54.203 352.2 3.1 347.5 11.6
2001-12-07 08:51:29 51°16.459 2°54.201 345.7 3.4 340.8 11.6
2001-12-07 08:51:35 51°16.464 2°54.196 337.5 3.8 334.8 11.6
2001-12-07 08:51:39 51°16.469 2°54.191 329.2 4.2 328.6 11.6
2001-12-07 08:51:44 51°16.474 2°54.184 321.8 4.8 320.6 11.6
2001-12-07 08:51:50 51°16.48 2°54.173 317.7 5.3 316.1 11.4
2001-12-07 08:51:55 51°16.486 2°54.162 314.7 5.9 312.2 11.6
2001-12-07 08:51:59 51°16.491 2°54.153 312.7 6.4 309.9 11.3
2001-12-07 08:52:05 51°16.497 2°54.138 310 6.9 307.8 11.6
2001-12-07 08:52:10 51°16.503 2°54.124 308.2 7.2 305.4 11.6
2001-12-07 08:52:14 51°16.508 2°54.112 306.7 7.6 303.6 11.6
2001-12-07 08:52:19 51°16.514 2°54.098 305.5 7.9 302.3 11.5
2001-12-07 08:52:24 51°16.52 2°54.082 304.3 8.2 301.2 11.6
2001-12-07 08:52:29 51°16.526 2°54.066 303.7 8.4 300.8 11.5
2001-12-07 08:52:35 51°16.533 2°54.046 303.7 8.6 300.4 11.7
2001-12-07 08:52:40 51°16.539 2°54.029 303.8 8.8 300.6 11.5
2001-12-07 08:52:44 51°16.544 2°54.015 304.5 8.9 300.6 11.7
2001-12-07 08:52:49 51°16.551 2°53.998 305.7 9.1 301.7 11.6
2001-12-07 08:52:55 51°16.56 2°53.977 306.5 9.1 302.3 11.7
2001-12-07 08:52:59 51°16.565 2°53.964 307.5 9.3 303.7 11.7
2001-12-07 08:53:04 51°16.572 2°53.947 308.3 9.4 304.5 11.6
2001-12-07 08:53:09 51°16.58 2°53.93 308.2 9.4 304.7 11.7
2001-12-07 08:53:15 51°16.589 2°53.909 308 9.4 304.6 11.6
2001-12-07 08:53:19 51°16.595 2°53.895 307.7 9.5 304.3 11.5
2001-12-07 08:53:25 51°16.603 2°53.874 307.2 9.5 303.8 11.7
2001-12-07 08:53:29 51°16.61 2°53.86 307 9.5 303.7 11.7
2001-12-07 08:53:34 51°16.617 2°53.843 307.7 9.5 303.9 11.6
2001-12-07 08:53:41 51°16.628 2°53.818 308.5 9.6 304.5 11.6
2001-12-07 08:53:44 51°16.633 2°53.808 309.8 9.5 305.4 11.7
2001-12-07 08:53:50 51°16.643 2°53.788 311 9.5 306.5 11.7
2001-12-07 08:53:55 51°16.651 2°53.771 311.3 9.6 307.1 11.7
2001-12-07 08:54:00 51°16.659 2°53.754 311.7 9.6 307.7 11.6
2001-12-07 08:54:04 51°16.665 2°53.741 311.7 9.6 307.9 11.6
2001-12-07 08:54:09 51°16.674 2°53.724 311.7 9.6 307.8 11.7
2001-12-07 08:54:14 51°16.682 2°53.707 311.2 9.7 307.5 11.6
2001-12-07 08:54:19 51°16.69 2°53.69 310.3 9.7 307 11.6
2001-12-07 08:54:25 51°16.699 2°53.669 310 9.7 306.4 11.5
2001-12-07 08:54:29 51°16.705 2°53.655 309.2 9.7 305.6 11.5
2001-12-07 08:54:35 51°16.714 2°53.634 308.3 9.7 305 11.2
2001-12-07 08:54:39 51°16.72 2°53.62 307.3 9.7 304 11.4
2001-12-07 08:54:45 51°16.729 2°53.598 306.3 9.7 303.2 11.4
2001-12-07 08:54:49 51°16.735 2°53.583 305.8 9.7 302.5 11.4
2001-12-07 08:54:55 51°16.743 2°53.562 306 9.7 302.2 11.3
2001-12-07 08:54:59 51°16.749 2°53.547 306.5 9.7 302.3 11.2
2001-12-07 08:55:05 51°16.758 2°53.526 307.2 9.7 302.9 11.2
2001-12-07 08:55:09 51°16.764 2°53.511 308 9.7 303.6 11.1
2001-12-07 08:55:15 51°16.774 2°53.49 309.8 9.8 304.7 11.1
2001-12-07 08:55:19 51°16.78 2°53.477 311.3 9.8 305.7 11.1
2001-12-07 08:55:25 51°16.79 2°53.456 312.3 9.7 306.9 11.1
2001-12-07 08:55:29 51°16.797 2°53.443 312.3 9.7 307.6 11
2001-12-07 08:55:35 51°16.806 2°53.422 312.2 9.7 307.7 10.9
2001-12-07 08:55:39 51°16.813 2°53.408 312 9.7 307.8 10.9
2001-12-07 08:55:46 51°16.824 2°53.384 311.5 9.7 307.3 10.9
2001-12-07 08:55:49 51°16.829 2°53.374 311 9.7 307 10.8
2001-12-07 08:55:53 51°16.835 2°53.36 310.3 9.7 306.3 10.6
2001-12-07 08:55:59 51°16.845 2°53.339 309.7 9.7 305.7 10.5
2001-12-07 08:56:05 51°16.854 2°53.318 309.2 9.7 305.4 10.3
2001-12-07 08:56:09 51°16.86 2°53.304 308.5 9.7 305 10
2001-12-07 08:56:15 51°16.869 2°53.283 307.5 9.7 304.1 9.5
2001-12-07 08:56:19 51°16.875 2°53.268 306.5 9.7 303.7 9.1
2001-12-07 08:56:26 51°16.885 2°53.243 305.7 9.7 302.7 8.8
2001-12-07 08:56:29 51°16.89 2°53.232 305.8 9.7 302.5 8.4
2001-12-07 08:56:34 51°16.897 2°53.215 306.5 9.7 302.8 8.2
2001-12-07 08:56:40 51°16.906 2°53.193 307.5 9.6 303.6 8.1
2001-12-07 08:56:45 51°16.913 2°53.176 308.5 9.6 304.4 8
2001-12-07 08:56:50 51°16.921 2°53.159 309.2 9.6 305 8.1
2001-12-07 08:56:55 51°16.929 2°53.142 309.8 9.6 306 7.9
2001-12-07 08:56:59 51°16.936 2°53.128 310.8 9.6 306.8 7.7
2001-12-07 08:57:05 51°16.945 2°53.107 311.5 9.7 306.9 7.7
2001-12-07 08:57:09 51°16.952 2°53.094 311.8 9.7 307.2 8
2001-12-07 08:57:15 51°16.961 2°53.074 310.3 9.6 306.9 8
2001-12-07 08:57:20 51°16.969 2°53.057 309.7 9.6 306.6 8.1
2001-12-07 08:57:25 51°16.977 2°53.04 309.7 9.6 306.2 7.9
2001-12-07 08:57:30 51°16.985 2°53.023 310.5 9.6 306.5 8.2
2001-12-07 08:57:35 51°16.994 2°53.006 311.2 9.7 307.1 8.3
2001-12-07 08:57:39 51°17 2°52.992 312.3 9.7 308 8.4
2001-12-07 08:57:45 51°17.01 2°52.973 312.7 9.7 308.8 8.4
2001-12-07 08:57:51 51°17.021 2°52.953 313.3 9.7 309.2 8.5
2001-12-07 08:57:55 51°17.028 2°52.939 313 9.7 309.2 8.5
2001-12-07 08:57:59 51°17.034 2°52.926 312.5 9.8 309.1 8.5
2001-12-07 08:58:05 51°17.045 2°52.906 311.5 9.8 308.4 8.8
2001-12-07 08:58:09 51°17.051 2°52.892 312 9.8 308.5 8.9
2001-12-07 08:58:15 51°17.061 2°52.872 312.3 9.8 308.7 9.4
2001-12-07 08:58:19 51°17.068 2°52.859 312.8 9.8 309 9.5
2001-12-07 08:58:25 51°17.079 2°52.839 312.8 9.8 309.2 9.6
2001-12-07 08:58:31 51°17.089 2°52.819 312.7 9.8 309 9.8
2001-12-07 08:58:34 51°17.094 2°52.809 311.7 9.8 308.5 9.9
2001-12-07 08:58:40 51°17.104 2°52.788 310.7 9.7 307.8 9.9
2001-12-07 08:58:46 51°17.113 2°52.768 309.8 9.7 306.9 9.9
2001-12-07 08:58:51 51°17.121 2°52.751 309.3 9.8 306.3 10
2001-12-07 08:58:55 51°17.128 2°52.737 309.5 9.8 305.9 9.7
2001-12-07 08:59:00 51°17.136 2°52.719 310 9.8 306.3 9.4
2001-12-07 08:59:06 51°17.146 2°52.699 310.7 9.7 306.9 9.4
2001-12-07 08:59:10 51°17.153 2°52.686 312.5 9.7 308.1 9.2
2001-12-07 08:59:14 51°17.16 2°52.673 315.3 9.7 309.7 9.5
2001-12-07 08:59:19 51°17.169 2°52.657 316.5 9.7 311.3 9.5
2001-12-07 08:59:26 51°17.182 2°52.635 317.3 9.7 312.2 9.3
2001-12-07 08:59:30 51°17.189 2°52.623 316.5 9.7 312.4 9.4
2001-12-07 08:59:35 51°17.198 2°52.606 315.5 9.7 312 9.5
2001-12-07 08:59:41 51°17.208 2°52.586 314.7 9.8 310.5 9.5
2001-12-07 08:59:45 51°17.215 2°52.573 314.3 9.8 310 9.6
2001-12-07 08:59:50 51°17.224 2°52.557 314 9.8 309.7 9.4
2001-12-07 08:59:55 51°17.233 2°52.54 314.7 9.9 310.2 9.5
2001-12-07 09:00:00 51°17.242 2°52.524 316.5 9.9 310.9 9.8
2001-12-07 09:00:05 51°17.252 2°52.509 318.5 9.9 312.8 9.6
2001-12-07 09:00:10 51°17.262 2°52.493 319.7 9.8 314.4 9.8
2001-12-07 09:00:16 51°17.273 2°52.475 319.8 9.8 315.3 9.9
2001-12-07 09:00:20 51°17.281 2°52.463 319.3 9.8 315.2 9.9
2001-12-07 09:00:24 51°17.289 2°52.451 319.3 9.8 315 10
2001-12-07 09:00:31 51°17.302 2°52.429 319.2 9.9 314.9 9.8
2001-12-07 09:00:36 51°17.312 2°52.414 320.2 9.9 315.3 10
2001-12-07 09:00:41 51°17.322 2°52.399 321.3 9.9 316.2 10
2001-12-07 09:00:46 51°17.333 2°52.385 323 9.9 317.4 10.1
2001-12-07 09:00:50 51°17.341 2°52.374 325.2 9.9 319.9 10.1
2001-12-07 09:00:55 51°17.352 2°52.361 327.2 9.9 321.8 10.1
2001-12-07 09:01:00 51°17.363 2°52.349 328.8 9.9 323.4 10.1
2001-12-07 09:01:05 51°17.375 2°52.336 329.7 9.9 324.8 10.1
2001-12-07 09:01:10 51°17.386 2°52.324 329.3 9.9 325.2 10.1
2001-12-07 09:01:15 51°17.397 2°52.311 329.7 9.9 325.1 10.1
2001-12-07 09:01:20 51°17.408 2°52.299 329.7 9.9 325.2 10.2
2001-12-07 09:01:25 51°17.419 2°52.286 328.8 9.9 324.7 10.1
2001-12-07 09:01:29 51°17.428 2°52.276 327.3 9.9 323.9 10.2
2001-12-07 09:01:35 51°17.441 2°52.26 326.3 9.9 322.9 10.1
2001-12-07 09:01:39 51°17.45 2°52.249 326 9.9 322.2 10.1
2001-12-07 09:01:46 51°17.465 2°52.23 324.8 9.8 321.2 10.2
2001-12-07 09:01:50 51°17.473 2°52.218 323.7 9.8 320.5 10.1
2001-12-07 09:01:55 51°17.483 2°52.204 323.2 9.8 319.5 10.2
2001-12-07 09:02:00 51°17.493 2°52.189 322.8 9.8 318.5 9.8
2001-12-07 09:02:05 51°17.504 2°52.175 322 9.8 318.1 10.2
2001-12-07 09:02:10 51°17.514 2°52.16 322 9.9 317.4 10.2
2001-12-07 09:02:15 51°17.524 2°52.145 323.2 9.9 317.3 10.3
2001-12-07 09:02:21 51°17.536 2°52.128 324 9.9 318.1 10.2
2001-12-07 09:02:26 51°17.546 2°52.114 324.2 9.8 318.4 10.2
2001-12-07 09:02:31 51°17.556 2°52.099 324.2 9.8 318.6 10.2
2001-12-07 09:02:35 51°17.564 2°52.088 324.8 9.8 318.9 10.2
2001-12-07 09:02:39 51°17.573 2°52.077 326 9.8 319.6 10.1
2001-12-07 09:02:45 51°17.585 2°52.061 326.2 9.8 320.7 10.3
2001-12-07 09:02:49 51°17.594 2°52.05 326.5 9.8 321 10.2
2001-12-07 09:02:55 51°17.607 2°52.034 327.3 9.8 321.5 10.2
2001-12-07 09:02:59 51°17.615 2°52.023 327.8 9.8 322.2 10.3
2001-12-07 09:03:05 51°17.628 2°52.008 328.2 9.8 322.8 10.2
2001-12-07 09:03:09 51°17.637 2°51.997 328.8 9.8 323.4 10.1
2001-12-07 09:03:15 51°17.65 2°51.982 329.5 9.8 323.8 10.1
2001-12-07 09:03:19 51°17.659 2°51.972 330 9.8 324.2 10
2001-12-07 09:03:25 51°17.672 2°51.957 330 9.8 324.6 10
2001-12-07 09:03:30 51°17.683 2°51.944 330 9.8 324.6 10.1
2001-12-07 09:03:35 51°17.694 2°51.932 329.8 9.7 324.5 10
2001-12-07 09:03:39 51°17.703 2°51.921 329.7 9.7 324.3 10
2001-12-07 09:03:45 51°17.716 2°51.906 329.5 9.8 324.1 10
2001-12-07 09:03:49 51°17.725 2°51.896 329 9.8 323.8 10.1
2001-12-07 09:03:55 51°17.738 2°51.88 328.3 9.7 323.2 10
2001-12-07 09:03:59 51°17.746 2°51.87 327.7 9.7 322.8 10
2001-12-07 09:04:05 51°17.759 2°51.854 327 9.7 322.1 10
2001-12-07 09:04:10 51°17.769 2°51.84 326.3 9.7 321.6 10
2001-12-07 09:04:15 51°17.78 2°51.827 326 9.8 321 9.9
2001-12-07 09:04:19 51°17.788 2°51.816 326.2 9.7 321.2 10
2001-12-07 09:04:25 51°17.801 2°51.801 327 9.5 321.7 10
2001-12-07 09:04:29 51°17.809 2°51.791 328.5 9.4 322.8 9.8
2001-12-07 09:04:35 51°17.821 2°51.777 329.2 9.1 323.7 10
2001-12-07 09:04:40 51°17.831 2°51.765 329.8 9 324.4 10
2001-12-07 09:04:45 51°17.841 2°51.754 330.3 8.9 324.6 10
2001-12-07 09:04:50 51°17.851 2°51.743 330 8.8 324.4 10
2001-12-07 09:04:54 51°17.859 2°51.734 329 8.7 324.2 10.1
2001-12-07 09:04:59 51°17.868 2°51.722 328.2 8.6 323.5 9.9
2001-12-07 09:05:04 51°17.877 2°51.711 327.3 8.5 322.3 9.9
2001-12-07 09:05:09 51°17.887 2°51.699 326.5 8.4 321.6 10
2001-12-07 09:05:15 51°17.897 2°51.685 325.8 8.4 320.8 10.1
2001-12-07 09:05:20 51°17.906 2°51.673 325.8 8.3 320.3 10
2001-12-07 09:05:25 51°17.915 2°51.662 326.3 8.3 320.4 9.9
2001-12-07 09:05:30 51°17.924 2°51.651 327.5 8.2 320.9 9.9
2001-12-07 09:05:34 51°17.931 2°51.642 329.7 8.2 322.5 10.1
2001-12-07 09:05:39 51°17.94 2°51.632 331.2 8.1 324.1 10.2
2001-12-07 09:05:45 51°17.952 2°51.62 332.2 8.2 325.3 10.2
2001-12-07 09:05:49 51°17.959 2°51.612 332.5 8.1 325.8 10.4
2001-12-07 09:05:55 51°17.97 2°51.599 333 8.1 326.2 10.5
2001-12-07 09:06:00 51°17.979 2°51.59 333.3 8.1 326.6 10.4
2001-12-07 09:06:05 51°17.989 2°51.58 333.3 8 326.9 10.5
2001-12-07 09:06:09 51°17.996 2°51.573 333.7 8 327.2 10.5
2001-12-07 09:06:14 51°18.006 2°51.563 333.8 8 327.5 10.5
2001-12-07 09:06:20 51°18.017 2°51.551 333.5 8 327.5 10.5
2001-12-07 09:06:24 51°18.025 2°51.544 333.5 8.1 327.1 10.7
2001-12-07 09:06:30 51°18.036 2°51.532 333.2 8.1 326.6 10.7
2001-12-07 09:06:35 51°18.045 2°51.522 332.3 8.1 326.2 10.8
2001-12-07 09:06:39 51°18.052 2°51.514 331.2 8.1 325.3 10.9
2001-12-07 09:06:44 51°18.061 2°51.503 329.8 8 324.5 11
2001-12-07 09:06:49 51°18.07 2°51.493 329 8.1 323.8 11
2001-12-07 09:06:55 51°18.081 2°51.48 328.7 8.1 323.3 11
2001-12-07 09:06:59 51°18.088 2°51.471 328.3 8.1 323 11
2001-12-07 09:07:05 51°18.099 2°51.458 327.7 8.1 322.5 11.2
2001-12-07 09:07:10 51°18.108 2°51.447 327 8.1 321.9 11.3
2001-12-07 09:07:15 51°18.117 2°51.436 326.5 8.1 321.1 11.4
2001-12-07 09:07:19 51°18.124 2°51.426 326.2 8.1 320.9 11.3
2001-12-07 09:07:24 51°18.132 2°51.415 326 8.1 320.8 11.4
2001-12-07 09:07:31 51°18.144 2°51.399 325.8 8.1 320.8 11.5
2001-12-07 09:07:36 51°18.153 2°51.388 325.8 8.1 320.6 11.6
2001-12-07 09:07:41 51°18.162 2°51.376 325.7 8.1 320.2 11.6
2001-12-07 09:07:46 51°18.17 2°51.365 325 8.1 319.8 11.7
2001-12-07 09:07:50 51°18.177 2°51.355 324.7 8.1 319.7 11.8
2001-12-07 09:07:55 51°18.185 2°51.343 323.8 8.1 319 11.9
2001-12-07 09:07:59 51°18.192 2°51.334 323.3 8.1 318.1 11.9
2001-12-07 09:08:04 51°18.2 2°51.321 322.7 8.1 317.6 11.8
2001-12-07 09:08:10 51°18.21 2°51.306 322.3 8.2 317 12.1
2001-12-07 09:08:15 51°18.219 2°51.294 322.7 8.2 316.7 12.1
2001-12-07 09:08:20 51°18.227 2°51.282 323.3 8.1 316.8 12.2
2001-12-07 09:08:25 51°18.235 2°51.271 325.3 8.1 318.3 12.3
2001-12-07 09:08:29 51°18.242 2°51.262 327.3 8.1 319.5 12.3
2001-12-07 09:08:35 51°18.253 2°51.249 329.2 8 321.8 12.4
2001-12-07 09:08:39 51°18.26 2°51.24 329.7 8 322.4 12.4
2001-12-07 09:08:45 51°18.271 2°51.228 330.2 8 323.5 12.4
2001-12-07 09:08:49 51°18.278 2°51.219 330.2 8 323.6 12.6
2001-12-07 09:08:55 51°18.289 2°51.207 331 8 324.3 12.6
2001-12-07 09:08:59 51°18.296 2°51.199 332.3 8 325 12.6
2001-12-07 09:09:05 51°18.308 2°51.187 333.7 8.1 326.5 12.7
2001-12-07 09:09:10 51°18.317 2°51.178 335 8.1 327.7 12.7
2001-12-07 09:09:15 51°18.327 2°51.169 336.3 8.1 329.4 12.8
2001-12-07 09:09:20 51°18.336 2°51.16 337 8.1 329.9 12.8
2001-12-07 09:09:24 51°18.344 2°51.153 337.7 8 330.6 12.8
2001-12-07 09:09:30 51°18.356 2°51.143 337.3 8 330.8 12.7
2001-12-07 09:09:35 51°18.365 2°51.134 336.3 8.1 330.5 13
2001-12-07 09:09:40 51°18.375 2°51.124 335 8.1 329.8 13.1
2001-12-07 09:09:45 51°18.384 2°51.115 333.8 8.1 328.3 13.1
2001-12-07 09:09:50 51°18.393 2°51.106 333.3 8 327.9 13.2
2001-12-07 09:09:55 51°18.402 2°51.097 332.5 7.6 327.3 13.2
2001-12-07 09:09:59 51°18.409 2°51.09 331.8 7.3 326.4 13.2
2001-12-07 09:10:05 51°18.418 2°51.079 330.7 7 325.3 13.3
2001-12-07 09:10:09 51°18.424 2°51.072 329 6.6 324.2 13.3
2001-12-07 09:10:15 51°18.432 2°51.063 327 6.2 322.9 13.3
2001-12-07 09:10:20 51°18.438 2°51.055 326.5 5.9 321.9 13.2
2001-12-07 09:10:24 51°18.442 2°51.049 328.5 5.4 322.5 13.3
2001-12-07 09:10:29 51°18.447 2°51.044 333.3 4.8 324.5 13.3
2001-12-07 09:10:35 51°18.453 2°51.039 339.3 4.1 327.8 13.4
2001-12-07 09:10:40 51°18.456 2°51.036 345.2 3.5 331 13.4
2001-12-07 09:10:44 51°18.459 2°51.033 350.2 2.9 332.9 13.3
2001-12-07 09:10:49 51°18.462 2°51.031 354.8 2.5 333.9 13.4
2001-12-07 09:10:55 51°18.464 2°51.029 358.8 1.9 332.2 13.5
2001-12-07 09:11:00 51°18.465 2°51.027 2.2 1.4 327.3 13.5
2001-12-07 09:11:04 51°18.467 2°51.026 5 1.2 322.1 13.5
2001-12-07 09:11:10 51°18.468 2°51.024 6.7 1.1 321.4 13.5
2001-12-07 09:11:15 51°18.469 2°51.023 7.7 1.1 320.3 13.5
2001-12-07 09:11:19 51°18.47 2°51.021 8.3 1.1 322.4 13.5
2001-12-07 09:11:24 51°18.472 2°51.02 9.2 1.2 328.9 13.5
2001-12-07 09:11:30 51°18.474 2°51.019 11.3 1.3 336.3 13.5
2001-12-07 09:11:35 51°18.477 2°51.019 15.8 1.8 350.6 13.5
2001-12-07 09:11:39 51°18.48 2°51.019 23 2.4 2.5 13.5
2001-12-07 09:11:45 51°18.485 2°51.022 31.8 2.8 13.6 13.5
2001-12-07 09:11:50 51°18.489 2°51.025 40.7 3.2 24 13.5
2001-12-07 09:11:54 51°18.492 2°51.028 49.2 3.1 29.9 13.5
2001-12-07 09:12:00 51°18.495 2°51.032 53.7 2.9 33.6 13.5
2001-12-07 09:12:04 51°18.498 2°51.035 56.5 2.6 36.8 13.4
2001-12-07 09:12:09 51°18.5 2°51.038 57.7 2.4 37.8 13.5
2001-12-07 09:12:15 51°18.503 2°51.041 59 2.1 36.1 13.6
2001-12-07 09:12:21 51°18.505 2°51.043 61.3 1.7 30.6 13.6
2001-12-07 09:12:25 51°18.506 2°51.044 64.3 1.3 26.4 13.6
2001-12-07 09:12:30 51°18.507 2°51.043 66.3 0.8 8.3 13.6
2001-12-07 09:12:35 51°18.509 2°51.042 69 0.8 349.6 13.6
2001-12-07 09:12:39 51°18.509 2°51.041 70.8 0.8 334.6 13.6
2001-12-07 09:12:45 51°18.51 2°51.041 71.5 0.8 331.9 13.5
2001-12-07 09:12:49 51°18.511 2°51.04 72 0.8 331.9 13.6
2001-12-07 09:12:55 51°18.512 2°51.039 72.2 0.8 331.5 13.6
2001-12-07 09:13:00 51°18.513 2°51.038 72.3 0.8 330.7 13.6
2001-12-07 09:13:05 51°18.514 2°51.038 72.7 0.8 335.6 13.6
2001-12-07 09:13:09 51°18.514 2°51.038 72.8 0.8 354 13.6
2001-12-07 09:13:15 51°18.516 2°51.041 76.3 1.1 38.6 13.6
2001-12-07 09:13:19 51°18.516 2°51.044 82 1.6 60.5 13.6
2001-12-07 09:13:25 51°18.517 2°51.05 90 2.1 73.6 13.5
2001-12-07 09:13:29 51°18.518 2°51.055 97.7 2.5 80 13.6
2001-12-07 09:13:35 51°18.517 2°51.061 104.5 2.5 90.2 13.6
2001-12-07 09:13:39 51°18.517 2°51.065 109.2 2.3 96.6 13.6
2001-12-07 09:13:44 51°18.516 2°51.069 112.8 2.1 100.8 13.6
2001-12-07 09:13:50 51°18.515 2°51.074 115.2 1.9 104.5 13.6
2001-12-07 09:13:55 51°18.514 2°51.078 116.7 1.8 106.6 13.6
2001-12-07 09:13:59 51°18.514 2°51.08 117.7 1.6 108.4 13.6
2001-12-07 09:14:05 51°18.513 2°51.083 119.3 1.1 106.1 13.6
2001-12-07 09:14:10 51°18.514 2°51.083 121 0.5 96.6 13.6
2001-12-07 09:14:15 51°18.514 2°51.083 123 0.2 21.3 13.6
2001-12-07 09:14:19 51°18.514 2°51.082 124.8 0.4 319.6 13.5
2001-12-07 09:14:26 51°18.516 2°51.08 125.7 0.7 316 13.5
2001-12-07 09:14:29 51°18.516 2°51.08 125.7 0.7 315.5 13.6
2001-12-07 09:14:35 51°18.517 2°51.078 125.3 0.7 315.4 13.6
2001-12-07 09:14:40 51°18.518 2°51.077 125.2 0.7 321 13.6
2001-12-07 09:14:45 51°18.519 2°51.076 124.3 0.7 321.6 13.4
2001-12-07 09:14:49 51°18.519 2°51.076 123.7 0.7 320.2 13.6
2001-12-07 09:14:55 51°18.52 2°51.075 122.8 0.7 320.3 13.5
2001-12-07 09:14:59 51°18.521 2°51.074 122.2 0.6 321.2 13.5
2001-12-07 09:15:05 51°18.521 2°51.072 121.2 0.6 317.3 9.7
2001-12-07 09:15:10 51°18.522 2°51.072 120.5 0.6 317.6 9.5
2001-12-07 09:15:15 51°18.523 2°51.071 119.2 0.6 317.5 9.2
2001-12-07 09:15:20 51°18.524 2°51.07 118 0.6 320.1 13.5
2001-12-07 09:15:24 51°18.524 2°51.069 116.8 0.6 318 13.5
2001-12-07 09:15:30 51°18.525 2°51.068 116.3 0.6 313.1 13.5
2001-12-07 09:15:35 51°18.525 2°51.067 115.3 0.6 315.2 13.6
2001-12-07 09:15:39 51°18.526 2°51.066 114.3 0.6 316.9 13.5
2001-12-07 09:15:45 51°18.527 2°51.065 113.3 0.6 319.9 13.6
2001-12-07 09:15:50 51°18.527 2°51.064 112.3 0.6 314.7 13.6
2001-12-07 09:15:54 51°18.528 2°51.064 111.3 0.6 320.6 13.7
2001-12-07 09:16:00 51°18.528 2°51.063 110.2 0.6 317.4 13.7
2001-12-07 09:16:04 51°18.529 2°51.062 109.2 0.6 319.6 13.7
2001-12-07 09:16:10 51°18.53 2°51.061 108.7 0.6 320.7 13.6
2001-12-07 09:16:15 51°18.53 2°51.06 107.8 0.6 325.7 13.6
2001-12-07 09:16:20 51°18.531 2°51.06 106.8 0.6 325.7 13.6
2001-12-07 09:16:25 51°18.531 2°51.059 106.5 0.5 327.9 13.6
2001-12-07 09:16:31 51°18.532 2°51.059 106.3 0.5 331.1 13.6
2001-12-07 09:16:35 51°18.533 2°51.058 106.3 0.4 332.4 13.6
2001-12-07 09:16:39 51°18.534 2°51.058 106 0.5 340.2 13.7
2001-12-07 09:16:45 51°18.534 2°51.057 105.7 0.5 341.7 13.6
2001-12-07 09:16:50 51°18.535 2°51.057 105.8 0.4 343 13.5
2001-12-07 09:16:55 51°18.536 2°51.057 106.2 0.4 348.5 13.6
2001-12-07 09:16:59 51°18.536 2°51.057 106.2 0.4 356.6 13.6
2001-12-07 09:17:05 51°18.537 2°51.057 106.5 0.4 359.6 13.6
2001-12-07 09:17:09 51°18.537 2°51.057 107.7 0.4 2.5 13.6
2001-12-07 09:17:15 51°18.538 2°51.057 108.3 0.4 8.6 13.6
2001-12-07 09:17:20 51°18.538 2°51.058 108.8 0.4 11.4 13.6
2001-12-07 09:17:25 51°18.538 2°51.058 110 0.3 17.3 13.6
2001-12-07 09:17:29 51°18.539 2°51.058 111.3 0.4 22.6 13.6
2001-12-07 09:17:35 51°18.539 2°51.059 112.3 0.3 29.7 13.6
2001-12-07 09:17:39 51°18.54 2°51.059 113.5 0.3 41.5 13.6
2001-12-07 09:17:45 51°18.54 2°51.059 114.7 0.2 54.7 13.6
2001-12-07 09:17:49 51°18.54 2°51.06 115.8 0.3 51.9 13.7
2001-12-07 09:17:55 51°18.54 2°51.061 117 0.3 55.3 13.6
2001-12-07 09:17:59 51°18.54 2°51.061 118.5 0.3 67.2 13.6
2001-12-07 09:18:05 51°18.54 2°51.062 120.3 0.2 78.9 13.6
2001-12-07 09:18:09 51°18.54 2°51.062 121.8 0.3 77.8 13.6
2001-12-07 09:18:15 51°18.541 2°51.063 123.3 0.3 90.7 13.6
2001-12-07 09:18:19 51°18.54 2°51.063 124.8 0.2 94 13.6
2001-12-07 09:18:24 51°18.54 2°51.063 127 0.2 103.6 13.5
2001-12-07 09:18:30 51°18.54 2°51.064 128.7 0.3 103.5 13.6
2001-12-07 09:18:35 51°18.54 2°51.065 130.2 0.3 119.6 13.6
2001-12-07 09:18:40 51°18.54 2°51.065 132.2 0.3 129.1 13.6
2001-12-07 09:18:44 51°18.54 2°51.066 134 0.3 132.4 13.6
2001-12-07 09:18:49 51°18.539 2°51.066 135.5 0.3 143.3 13.6
2001-12-07 09:18:55 51°18.539 2°51.066 137.2 0.3 145.4 13.6
2001-12-07 09:19:00 51°18.538 2°51.067 139.2 0.3 159.7 13.5
2001-12-07 09:19:05 51°18.538 2°51.067 141.5 0.4 159.5 13.6
2001-12-07 09:19:09 51°18.537 2°51.067 142.8 0.4 159.1 13.6
2001-12-07 09:19:15 51°18.536 2°51.067 144.2 0.5 168.3 13.6
2001-12-07 09:19:19 51°18.536 2°51.068 145.7 0.5 167.7 13.6
2001-12-07 09:19:25 51°18.535 2°51.068 146.7 0.5 163.8 13.6
2001-12-07 09:19:30 51°18.534 2°51.068 146.7 0.5 166.2 13.4
2001-12-07 09:19:35 51°18.533 2°51.068 148.2 0.6 174.9 13.5
2001-12-07 09:19:40 51°18.533 2°51.068 149.2 0.6 167.9 13.5
2001-12-07 09:19:45 51°18.532 2°51.068 149.5 0.6 174.8 13.5
2001-12-07 09:19:49 51°18.531 2°51.068 150.7 0.7 174.4 13.6
2001-12-07 09:19:55 51°18.53 2°51.069 151.3 0.7 175.2 13.6
2001-12-07 09:20:00 51°18.529 2°51.069 151.7 0.7 178.3 13.4
2001-12-07 09:20:04 51°18.528 2°51.069 152.5 0.8 181.1 13.5
2001-12-07 09:20:09 51°18.527 2°51.069 153.5 0.7 175.8 13.5
2001-12-07 09:20:15 51°18.525 2°51.069 153.2 0.8 176.1 13.5
2001-12-07 09:20:19 51°18.525 2°51.069 153.3 0.8 181.5 13.5
2001-12-07 09:20:24 51°18.523 2°51.069 154.2 0.8 181.1 13.5
2001-12-07 09:20:28 51°18.522 2°51.069 154.7 0.8 177.5 13.5
2001-12-07 09:20:36 51°18.52 2°51.069 154.3 0.9 179.2 13.6
2001-12-07 09:20:40 51°18.519 2°51.069 155 0.9 179.2 13.5
2001-12-07 09:20:45 51°18.518 2°51.069 155 0.9 178.2 13.5
2001-12-07 09:20:49 51°18.517 2°51.069 155 0.9 177.7 13.6
2001-12-07 09:20:55 51°18.516 2°51.069 155.3 0.9 178.2 13.5
2001-12-07 09:20:59 51°18.514 2°51.069 155 1 181.4 13.5
2001-12-07 09:21:05 51°18.513 2°51.069 155 1 179.4 13.5
2001-12-07 09:21:10 51°18.512 2°51.069 154.8 1 178.6 13.5
2001-12-07 09:21:16 51°18.51 2°51.069 154.8 1 179.5 13.5
2001-12-07 09:21:19 51°18.509 2°51.069 154.8 1 178.8 13.5
2001-12-07 09:21:26 51°18.507 2°51.069 154.5 1 177.9 13.5
2001-12-07 09:21:30 51°18.506 2°51.07 154.3 1 178 13.5
2001-12-07 09:21:36 51°18.504 2°51.07 154.2 1 178.2 13.5
2001-12-07 09:21:40 51°18.503 2°51.07 154 1 177 13.4
2001-12-07 09:21:44 51°18.502 2°51.07 153.5 1 177.6 13.5
2001-12-07 09:21:50 51°18.5 2°51.07 153.3 1 176.7 13.5
2001-12-07 09:21:55 51°18.499 2°51.07 152.8 1.1 175.7 13.4
2001-12-07 09:22:00 51°18.497 2°51.07 152.5 1.1 176.6 13.4
2001-12-07 09:22:05 51°18.496 2°51.071 152.3 1 177 13.4
2001-12-07 09:22:10 51°18.494 2°51.071 151.8 1 175.9 13.4
2001-12-07 09:22:16 51°18.493 2°51.071 151.5 1 177.9 13.5
2001-12-07 09:22:20 51°18.492 2°51.071 151.5 1 179 13.4
2001-12-07 09:22:25 51°18.49 2°51.071 151.2 0.9 182.1 13.4
2001-12-07 09:22:30 51°18.489 2°51.071 150.8 0.9 181.3 13.4
2001-12-07 09:22:36 51°18.488 2°51.071 150.3 0.9 184.1 13.3
2001-12-07 09:22:40 51°18.487 2°51.07 150.3 0.8 185 13.3
2001-12-07 09:22:45 51°18.486 2°51.07 150.3 0.8 182.2 13.3
2001-12-07 09:22:50 51°18.485 2°51.07 150 0.8 183.8 13.4
2001-12-07 09:22:56 51°18.484 2°51.07 149.8 0.7 184.9 13.3
2001-12-07 09:22:59 51°18.483 2°51.07 149.7 0.7 187.3 13.3
2001-12-07 09:23:05 51°18.482 2°51.069 149.8 0.7 188.9 13.3
2001-12-07 09:23:09 51°18.481 2°51.069 149.8 0.7 190.2 13.3
2001-12-07 09:23:14 51°18.48 2°51.069 150 0.6 189.8 13.2
2001-12-07 09:23:21 51°18.479 2°51.068 149.8 0.6 193.1 13.3
2001-12-07 09:23:25 51°18.479 2°51.068 150.2 0.6 195 13.3
2001-12-07 09:23:30 51°18.478 2°51.067 150.3 0.6 197.6 13.3
2001-12-07 09:23:36 51°18.477 2°51.067 150.3 0.6 198.2 13.3
2001-12-07 09:23:39 51°18.476 2°51.067 150.5 0.6 198.8 13.3
2001-12-07 09:23:44 51°18.476 2°51.066 150.7 0.6 201.2 13.3
2001-12-07 09:23:50 51°18.475 2°51.066 150.8 0.6 202.9 13.3
2001-12-07 09:23:55 51°18.475 2°51.065 150.8 0.6 206.8 13.3
2001-12-07 09:24:00 51°18.474 2°51.064 151.3 0.5 206.7 13.3
2001-12-07 09:24:04 51°18.474 2°51.063 151.3 0.5 210.4 13.3
2001-12-07 09:24:10 51°18.473 2°51.063 151.5 0.5 214.4 13.3
2001-12-07 09:24:15 51°18.472 2°51.062 151.7 0.5 218.7 13.3
2001-12-07 09:24:20 51°18.472 2°51.061 152.3 0.5 219.7 13.3
2001-12-07 09:24:26 51°18.471 2°51.06 152.2 0.5 220.3 13.3
2001-12-07 09:24:31 51°18.471 2°51.06 152.3 0.5 222.1 13.3
2001-12-07 09:24:36 51°18.47 2°51.059 152.8 0.5 225 13.3
2001-12-07 09:24:41 51°18.47 2°51.058 153.3 0.5 229.6 13.3
2001-12-07 09:24:45 51°18.469 2°51.057 153.7 0.5 231.1 13.2
2001-12-07 09:24:50 51°18.469 2°51.056 153.8 0.5 232.1 13.3
2001-12-07 09:24:55 51°18.468 2°51.055 153.8 0.5 233.8 13.3
2001-12-07 09:24:59 51°18.468 2°51.054 154.3 0.6 235.8 13.3
2001-12-07 09:25:06 51°18.467 2°51.053 155.2 0.6 237 13.3
2001-12-07 09:25:10 51°18.467 2°51.052 155.3 0.5 238.3 13.2
2001-12-07 09:25:14 51°18.467 2°51.051 155.2 0.5 239.3 13.2
2001-12-07 09:25:20 51°18.466 2°51.05 155.7 0.6 241 13.2
2001-12-07 09:25:25 51°18.466 2°51.048 156.2 0.6 244.3 13.3
2001-12-07 09:25:30 51°18.466 2°51.047 156.8 0.6 250.8 13.2
2001-12-07 09:25:35 51°18.466 2°51.046 157.2 0.6 260.4 13.3
2001-12-07 09:25:40 51°18.466 2°51.045 157.7 0.6 266 13.3
2001-12-07 09:25:45 51°18.466 2°51.043 158.2 0.7 271.9 13.3
2001-12-07 09:25:50 51°18.466 2°51.041 159 0.7 279.4 13.3
2001-12-07 09:25:56 51°18.466 2°51.039 159.8 0.8 281.3 13.3
2001-12-07 09:25:59 51°18.466 2°51.038 160.5 0.8 283.6 13.3
2001-12-07 09:26:05 51°18.467 2°51.036 161.3 0.8 284 13.2
2001-12-07 09:26:10 51°18.467 2°51.035 162 0.8 284 13.2
2001-12-07 09:26:15 51°18.467 2°51.033 162.8 0.8 278.9 13.3
2001-12-07 09:26:21 51°18.467 2°51.031 163.3 0.7 273 13.3
2001-12-07 09:26:24 51°18.467 2°51.03 163.3 0.7 261.6 13.2
2001-12-07 09:26:29 51°18.466 2°51.029 163 0.7 252.8 13.3
2001-12-07 09:26:34 51°18.466 2°51.027 162.5 0.7 242.4 13.3
2001-12-07 09:26:40 51°18.465 2°51.026 162 0.7 237.5 13.3
2001-12-07 09:26:45 51°18.465 2°51.024 161.7 0.7 236.6 13.3
2001-12-07 09:26:50 51°18.464 2°51.023 161.2 0.7 234.2 13.3
2001-12-07 09:26:55 51°18.464 2°51.022 160.3 0.7 231.3 13.3
2001-12-07 09:26:59 51°18.463 2°51.021 160 0.7 232.6 13.3
2001-12-07 09:27:06 51°18.463 2°51.019 159.8 0.7 232.8 13.3
2001-12-07 09:27:10 51°18.462 2°51.018 159.2 0.7 234.1 13.2
2001-12-07 09:27:15 51°18.462 2°51.017 158.7 0.7 233.2 13.3
2001-12-07 09:27:20 51°18.461 2°51.016 158.5 0.7 232.5 13.3
2001-12-07 09:27:26 51°18.46 2°51.014 158 0.7 232.5 13.3
2001-12-07 09:27:30 51°18.46 2°51.014 157.5 0.6 233.3 13.3
2001-12-07 09:27:35 51°18.459 2°51.012 156.8 0.7 232.3 13.2
2001-12-07 09:27:39 51°18.459 2°51.012 156.3 0.6 230.9 13.3
2001-12-07 09:27:44 51°18.459 2°51.01 155.5 0.6 231.1 13.3
2001-12-07 09:27:50 51°18.458 2°51.009 155.2 0.7 229 13.3
2001-12-07 09:27:55 51°18.457 2°51.008 154.3 0.6 228 13.3
2001-12-07 09:27:59 51°18.457 2°51.007 153.5 0.6 229.3 13.3
2001-12-07 09:28:05 51°18.456 2°51.006 152.5 0.6 226.4 13.3
2001-12-07 09:28:09 51°18.456 2°51.005 151.8 0.6 224.9 13.3
2001-12-07 09:28:15 51°18.455 2°51.004 151 0.6 226.4 13.3
2001-12-07 09:28:20 51°18.455 2°51.003 150 0.6 224.7 13.3
2001-12-07 09:28:25 51°18.454 2°51.002 148.7 0.6 224.1 13.3
2001-12-07 09:28:31 51°18.454 2°51.001 147.5 0.5 223.9 13.3
2001-12-07 09:28:35 51°18.453 2°51 146.5 0.5 222.1 13
2001-12-07 09:28:41 51°18.453 2°50.999 145.5 0.5 221.3 13.3
2001-12-07 09:28:46 51°18.452 2°50.998 144.5 0.5 224.2 13.2
2001-12-07 09:28:50 51°18.452 2°50.998 143.2 0.5 222.5 13.3
2001-12-07 09:28:56 51°18.451 2°50.997 141.8 0.5 224.5 13.1
2001-12-07 09:29:00 51°18.451 2°50.996 140.7 0.4 223.8 13.2
2001-12-07 09:29:05 51°18.451 2°50.996 139.7 0.4 224.6 13.2
2001-12-07 09:29:10 51°18.45 2°50.995 138.7 0.4 224.9 13.3
2001-12-07 09:29:15 51°18.45 2°50.994 137.3 0.4 222.9 13.3
2001-12-07 09:29:19 51°18.449 2°50.994 136.2 0.4 220.5 13.3
2001-12-07 09:29:25 51°18.449 2°50.993 135.3 0.4 223.1 13.2
2001-12-07 09:29:30 51°18.449 2°50.992 134.3 0.3 222.2 13.3
2001-12-07 09:29:35 51°18.448 2°50.992 132.8 0.4 226.6 13.2
2001-12-07 09:29:40 51°18.448 2°50.991 131.7 0.3 229.7 13.3
2001-12-07 09:29:45 51°18.448 2°50.991 130.5 0.3 225.7 13.3
2001-12-07 09:29:50 51°18.447 2°50.99 129.5 0.3 230.4 13.3
2001-12-07 09:29:55 51°18.447 2°50.99 128.5 0.3 231.6 13.1
2001-12-07 09:29:59 51°18.447 2°50.989 127.3 0.3 230.5 13.3
2001-12-07 09:30:05 51°18.447 2°50.989 125.8 0.3 226.1 13.2
2001-12-07 09:30:10 51°18.446 2°50.988 124.7 0.3 226 13.3
2001-12-07 09:30:15 51°18.446 2°50.988 123.7 0.2 235.9 13.3
2001-12-07 09:30:20 51°18.446 2°50.988 122.3 0.2 236 13.2
2001-12-07 09:30:25 51°18.446 2°50.987 121.2 0.2 240.5 13.2
2001-12-07 09:30:30 51°18.446 2°50.987 120 0.2 239 13.2
2001-12-07 09:30:35 51°18.446 2°50.987 118.3 0.1 250.9 13.3
2001-12-07 09:30:40 51°18.446 2°50.986 117 0.2 232.8 13.2
2001-12-07 09:30:45 51°18.445 2°50.986 116.5 0.2 238.8 13.2
2001-12-07 09:30:50 51°18.446 2°50.985 115.8 0.1 245.9 13.2
2001-12-07 09:30:55 51°18.446 2°50.985 114.7 0.1 262.3 13.2
2001-12-07 09:31:00 51°18.446 2°50.985 113.8 0.1 257.7 13.3
2001-12-07 09:31:05 51°18.446 2°50.985 113 0.1 281.4 13.3
2001-12-07 09:31:10 51°18.446 2°50.985 112.3 0.1 283.5 13.3
2001-12-07 09:31:15 51°18.446 2°50.985 111.3 0.1 316.5 13.3
2001-12-07 09:31:20 51°18.446 2°50.984 111 0.1 269.6 13.3
2001-12-07 09:31:25 51°18.446 2°50.984 110.8 0.1 293.3 13.3
2001-12-07 09:31:30 51°18.446 2°50.984 110 0.1 296.1 13.2
2001-12-07 09:31:35 51°18.446 2°50.984 109.5 0.1 312.8 13.2
2001-12-07 09:31:40 51°18.446 2°50.984 109.5 0.1 312.6 13.2
2001-12-07 09:31:45 51°18.446 2°50.984 109 0.1 331.1 13.3
2001-12-07 09:31:50 51°18.446 2°50.984 108.3 0.1 343.4 13.2
2001-12-07 09:31:55 51°18.446 2°50.983 108.2 0.1 343.6 13.2
2001-12-07 09:32:00 51°18.447 2°50.983 108 0.1 340.8 13.3
2001-12-07 09:32:05 51°18.447 2°50.983 107.7 0.2 356.8 13.3
2001-12-07 09:32:10 51°18.447 2°50.983 107.3 0.1 344.2 13.2
2001-12-07 09:32:15 51°18.447 2°50.983 107.5 0.1 350.7 13.3
2001-12-07 09:32:19 51°18.447 2°50.983 107.5 0.1 355.8 13.3
2001-12-07 09:32:25 51°18.447 2°50.983 107.7 0.2 350.1 13.2
2001-12-07 09:32:30 51°18.447 2°50.983 107.5 0.1 341.4 13.1
2001-12-07 09:32:35 51°18.448 2°50.983 107.7 0.1 355.3 13.3
2001-12-07 09:32:40 51°18.448 2°50.983 108 0.1 357.2 13.3
2001-12-07 09:32:45 51°18.448 2°50.983 108.2 0.1 4.9 13.3
2001-12-07 09:32:50 51°18.448 2°50.983 108.3 0.1 3.2 13.3
2001-12-07 09:32:55 51°18.448 2°50.983 108.5 0.1 1.7 13.1
2001-12-07 09:33:00 51°18.449 2°50.983 108.7 0.1 1.4 13.2
2001-12-07 09:33:06 51°18.449 2°50.982 109 0.1 2.1 13.3
2001-12-07 09:33:10 51°18.449 2°50.982 109.3 0.1 7.3 13.3
2001-12-07 09:33:15 51°18.449 2°50.983 109.7 0.1 4.8 13.3
2001-12-07 09:33:20 51°18.449 2°50.983 109.8 0.1 5.2 13.2
2001-12-07 09:33:24 51°18.449 2°50.983 110.2   16.3 13.2
2001-12-07 09:33:29 51°18.45 2°50.983 110.8 0.1 344.8 13.2
2001-12-07 09:33:35 51°18.45 2°50.983 111.2 0.1 0.4 13.2
2001-12-07 09:33:40 51°18.449 2°50.983 111.3 0.1 1.6 13.2
2001-12-07 09:33:45 51°18.449 2°50.983 112   337 13.2
2001-12-07 09:33:49 51°18.45 2°50.983 112.5 0.1 354.6 13.3
2001-12-07 09:33:55 51°18.45 2°50.983 112.8 0.1 339.3 13.2
2001-12-07 09:33:59 51°18.45 2°50.983 112.8 0.1 2.9 13.2
2001-12-07 09:34:05 51°18.45 2°50.983 113.3   268.6 13.2
2001-12-07 09:34:10 51°18.45 2°50.982 114.2   263.1 13.2
2001-12-07 09:34:14 51°18.45 2°50.983 114.5   250.7 13.2
2001-12-07 09:34:20 51°18.45 2°50.983 114.7   217.3 13.2
2001-12-07 09:34:25 51°18.45 2°50.983 115.3   310.9 13.2
2001-12-07 09:34:30 51°18.45 2°50.982 115.8   285.8 13.2
2001-12-07 09:34:35 51°18.45 2°50.982 116.3   323.5 13.2
2001-12-07 09:34:39 51°18.45 2°50.982 116.7   277.2 13.2
2001-12-07 09:34:46 51°18.45 2°50.982 116.8   211.1 13.3
2001-12-07 09:34:50 51°18.45 2°50.982 117.3   231.8 13.2
2001-12-07 09:34:55 51°18.45 2°50.982 117.5   347.8 13.2
2001-12-07 09:35:00 51°18.45 2°50.982 118   245.4 13.2
2001-12-07 09:35:05 51°18.45 2°50.982 118.8 0.1 266.5 13.2
2001-12-07 09:35:11 51°18.45 2°50.982 119.2 0.1 251 13.2
2001-12-07 09:35:15 51°18.45 2°50.982 119.7   266.7 13.2
2001-12-07 09:35:20 51°18.45 2°50.982 120 0.1 268.5 13.2
2001-12-07 09:35:25 51°18.45 2°50.982 120   250.9 13.2
2001-12-07 09:35:30 51°18.449 2°50.981 120.8 0.1 226.3 13.2
2001-12-07 09:35:35 51°18.449 2°50.981 121.7 0.1 232.4 13.2
2001-12-07 09:35:40 51°18.449 2°50.981 122 0.1 218.2 13.2
2001-12-07 09:35:44 51°18.449 2°50.981 122.2 0.1 224.3 13.2
2001-12-07 09:35:50 51°18.449 2°50.981 122.5 0.1 233.1 13.2
2001-12-07 09:35:56 51°18.449 2°50.98 123.3 0.2 228.1 13.2
2001-12-07 09:36:00 51°18.449 2°50.98 124 0.1 232.4 13.2
2001-12-07 09:36:05 51°18.448 2°50.98 124.2 0.1 235 13.3
2001-12-07 09:36:10 51°18.448 2°50.979 124.8 0.2 230.5 13.2
2001-12-07 09:36:15 51°18.448 2°50.979 125.2 0.2 217.5 13.3
2001-12-07 09:36:19 51°18.448 2°50.979 125.8 0.2 218.7 13.2
2001-12-07 09:36:25 51°18.448 2°50.978 126.7 0.2 224.6 13.2
2001-12-07 09:36:30 51°18.447 2°50.978 127 0.2 220.7 13.2
2001-12-07 09:36:34 51°18.447 2°50.978 127.5 0.2 222.4 13.2
2001-12-07 09:36:40 51°18.447 2°50.977 128.2 0.2 223.9 13.2
2001-12-07 09:36:45 51°18.447 2°50.977 129 0.3 226 13.1
2001-12-07 09:36:49 51°18.447 2°50.977 129.7 0.2 228.8 13.2
2001-12-07 09:36:55 51°18.446 2°50.976 129.8 0.2 224.3 13.2
2001-12-07 09:36:59 51°18.446 2°50.976 130.2 0.3 224.4 13.2
2001-12-07 09:37:05 51°18.446 2°50.975 131 0.3 228.8 13.2
2001-12-07 09:37:09 51°18.446 2°50.975 131.7 0.2 230.5 13.2
2001-12-07 09:37:15 51°18.446 2°50.975 131.8 0.3 228.2 13.2
2001-12-07 09:37:20 51°18.445 2°50.974 132.3 0.2 232.2 13.2
2001-12-07 09:37:25 51°18.445 2°50.974 132.8 0.3 232.9 13.2
2001-12-07 09:37:30 51°18.445 2°50.973 133.3 0.3 231.2 13.2
2001-12-07 09:37:35 51°18.445 2°50.973 134 0.3 230.7 13.2
2001-12-07 09:37:40 51°18.444 2°50.972 134.8 0.3 228.9 13.2
2001-12-07 09:37:45 51°18.444 2°50.972 135.2 0.3 226.4 13.2
2001-12-07 09:37:50 51°18.443 2°50.971 135.5 0.3 220.9 13.2
2001-12-07 09:37:55 51°18.443 2°50.971 136.2 0.4 209.3 13
2001-12-07 09:38:00 51°18.442 2°50.97 137.3 0.4 200 13.2
2001-12-07 09:38:04 51°18.442 2°50.971 138.3 0.5 174.1 13.2
2001-12-07 09:38:10 51°18.44 2°50.972 138.3 0.7 165.2 13.1
2001-12-07 09:38:16 51°18.438 2°50.974 136.8 1.1 151.2 13.2
2001-12-07 09:38:20 51°18.437 2°50.976 133.5 1.3 145.3 13.2
2001-12-07 09:38:25 51°18.435 2°50.979 128.3 1.7 136.2 13.1
2001-12-07 09:38:30 51°18.433 2°50.982 123.3 2.1 128.8 13.1
2001-12-07 09:38:35 51°18.432 2°50.987 117.3 2.3 123.1 13.2
2001-12-07 09:38:39 51°18.431 2°50.991 111.2 2.5 116.9 13.1
2001-12-07 09:38:46 51°18.43 2°51 104.7 2.7 108.2 13.1
2001-12-07 09:38:50 51°18.429 2°51.005 98.5 2.8 100.7 13.1
2001-12-07 09:38:56 51°18.43 2°51.013 92.2 3 92.9 13
2001-12-07 09:39:00 51°18.431 2°51.019 85.3 3.1 86.3 13.1
2001-12-07 09:39:05 51°18.432 2°51.026 79 3.3 76.7 13
2001-12-07 09:39:10 51°18.434 2°51.033 72.7 3.4 70.5 13.1
2001-12-07 09:39:15 51°18.437 2°51.04 66.3 3.6 60.6 13.1
2001-12-07 09:39:20 51°18.441 2°51.046 60.2 3.7 55 13
2001-12-07 09:39:25 51°18.445 2°51.052 52.5 4 46.1 13
2001-12-07 09:39:30 51°18.45 2°51.058 45.7 4.4 38.2 13
2001-12-07 09:39:36 51°18.458 2°51.064 36 4.9 29.9 13
2001-12-07 09:39:41 51°18.465 2°51.067 27.3 5.2 22.8 13
2001-12-07 09:39:46 51°18.474 2°51.068 18.3 5.7 12 12.9
2001-12-07 09:39:50 51°18.481 2°51.068 9.5 6 4.9 13.1
2001-12-07 09:39:56 51°18.491 2°51.064 0.3 6.3 354 13.1
2001-12-07 09:40:00 51°18.498 2°51.06 351.5 6.6 345.3 13.1
2001-12-07 09:40:04 51°18.505 2°51.054 341.8 6.8 336.4 13.2
2001-12-07 09:40:09 51°18.513 2°51.045 332.7 7 329.6 13.2
2001-12-07 09:40:16 51°18.523 2°51.028 323.7 7.2 319.2 13.2
2001-12-07 09:40:20 51°18.528 2°51.018 314.7 7.4 312.4 13.3
2001-12-07 09:40:25 51°18.533 2°51.003 305.3 7.5 302.9 13.3
2001-12-07 09:40:29 51°18.537 2°50.99 298 7.7 296.6 13.3
2001-12-07 09:40:35 51°18.541 2°50.969 293.2 8.1 290.6 13.3
2001-12-07 09:40:39 51°18.544 2°50.954 290.3 8.5 287.2 13.4
2001-12-07 09:40:45 51°18.548 2°50.931 288.8 8.8 285.8 13.3
2001-12-07 09:40:49 51°18.55 2°50.916 288.2 9 284.9 13.5
2001-12-07 09:40:55 51°18.554 2°50.892 287.8 9.3 284.6 13.5
2001-12-07 09:40:59 51°18.557 2°50.875 287.5 9.5 283.9 13.5
2001-12-07 09:41:05 51°18.561 2°50.849 287.2 9.7 283.9 13.5
2001-12-07 09:41:09 51°18.563 2°50.832 286.5 9.9 283.3 13.6
2001-12-07 09:41:15 51°18.567 2°50.806 285.7 10 282.5 13.5
2001-12-07 09:41:20 51°18.569 2°50.784 284.2 10.1 281.7 13.6
2001-12-07 09:41:25 51°18.571 2°50.762 283.2 10.2 280.4 13.6
2001-12-07 09:41:30 51°18.574 2°50.739 282.8 10.3 279.6 13.6
2001-12-07 09:41:35 51°18.576 2°50.717 283.7 10.3 279.9 13.6
2001-12-07 09:41:39 51°18.579 2°50.699 284.3 10.4 280.7 13.6
2001-12-07 09:41:45 51°18.582 2°50.671 284.5 10.4 280.8 13.7
2001-12-07 09:41:50 51°18.585 2°50.649 285.2 10.5 281.6 13.6
2001-12-07 09:41:55 51°18.588 2°50.626 286.2 10.5 282.3 13.7
2001-12-07 09:42:00 51°18.592 2°50.603 287.3 10.5 283.4 13.6
2001-12-07 09:42:05 51°18.595 2°50.581 288.3 10.5 284.1 13.7
2001-12-07 09:42:09 51°18.598 2°50.563 288.5 10.5 284.5 13.7
2001-12-07 09:42:15 51°18.603 2°50.536 288.5 10.5 284.4 13.7
2001-12-07 09:42:20 51°18.606 2°50.513 287.8 10.5 284.7 13.7
2001-12-07 09:42:25 51°18.61 2°50.491 287.7 10.5 284.5 13.7
2001-12-07 09:42:30 51°18.613 2°50.468 287.3 10.5 283.8 13.5
2001-12-07 09:42:35 51°18.617 2°50.446 287 10.5 283.8 13.6
2001-12-07 09:42:40 51°18.62 2°50.423 287.5 10.5 283.7 13.7
2001-12-07 09:42:45 51°18.624 2°50.4 287 10.5 283.5 13.7
2001-12-07 09:42:50 51°18.627 2°50.378 286.8 10.5 283.3 13.7
2001-12-07 09:42:55 51°18.631 2°50.355 287 10.5 283.8 13.7
2001-12-07 09:42:59 51°18.633 2°50.337 287 10.5 283.2 13.6
2001-12-07 09:43:05 51°18.637 2°50.31 287 10.5 283.4 13.6
2001-12-07 09:43:10 51°18.641 2°50.287 287.3 10.5 283.4 13.6
2001-12-07 09:43:15 51°18.644 2°50.265 287.5 10.5 283.3 13.6
2001-12-07 09:43:20 51°18.648 2°50.242 288 10.5 284.1 13.5
2001-12-07 09:43:25 51°18.651 2°50.22 288 10.5 283.6 13.4
2001-12-07 09:43:31 51°18.655 2°50.193 288.3 10.5 284 13.4
2001-12-07 09:43:35 51°18.658 2°50.174 288 10.5 283.7 13.2
2001-12-07 09:43:40 51°18.661 2°50.152 288 10.5 283.7 13.3
2001-12-07 09:43:44 51°18.664 2°50.134 288 10.5 283.6 13
2001-12-07 09:43:50 51°18.668 2°50.107 288.3 10.5 283.7 13
2001-12-07 09:43:55 51°18.672 2°50.084 288.2 10.5 283.6 12.9
2001-12-07 09:44:00 51°18.675 2°50.062 288 10.5 283.9 12.8
2001-12-07 09:44:05 51°18.678 2°50.039 288 10.5 283.5 12.6
2001-12-07 09:44:10 51°18.682 2°50.017 288.2 10.5 283.9 12.4
2001-12-07 09:44:15 51°18.685 2°49.994 288 10.5 283.6 12.4
2001-12-07 09:44:20 51°18.689 2°49.972 288.2 10.5 283.8 12.3
2001-12-07 09:44:24 51°18.692 2°49.954 288.2 10.5 283.7 12.1
2001-12-07 09:44:30 51°18.696 2°49.927 288 10.5 284.3 12.2
2001-12-07 09:44:36 51°18.7 2°49.9 287.8 10.5 283.7 12.1
2001-12-07 09:44:40 51°18.703 2°49.882 287.7 10.5 284 12.1
2001-12-07 09:44:46 51°18.707 2°49.855 287.5 10.5 283.6 12.1
2001-12-07 09:44:50 51°18.709 2°49.836 287.5 10.5 283.5 11.8
2001-12-07 09:44:56 51°18.714 2°49.809 287.8 10.5 283.5 11.6
2001-12-07 09:44:59 51°18.716 2°49.796 287.8 10.5 283.6 11.1
2001-12-07 09:45:05 51°18.72 2°49.769 288.2 10.5 284.1 10.6
2001-12-07 09:45:10 51°18.724 2°49.746 288 10.5 284.1 10.7
2001-12-07 09:45:15 51°18.727 2°49.724 287.8 10.5 284.3 10.9
2001-12-07 09:45:19 51°18.73 2°49.706 287.8 10.5 284 10.9
2001-12-07 09:45:25 51°18.734 2°49.679 287.8 10.5 284.3 10.5
2001-12-07 09:45:30 51°18.738 2°49.656 288 10.5 284.4 10.3
2001-12-07 09:45:36 51°18.742 2°49.629 288 10.5 283.8 10.3
2001-12-07 09:45:40 51°18.745 2°49.611 287.8 10.5 283.9 10.1
2001-12-07 09:45:46 51°18.75 2°49.584 288 10.5 284.2 10.1
2001-12-07 09:45:50 51°18.752 2°49.566 287.7 10.5 284.2 10
2001-12-07 09:45:55 51°18.756 2°49.543 287.5 10.5 284.5 9.9
2001-12-07 09:46:00 51°18.759 2°49.521 287.8 10.5 284.3 9.8
2001-12-07 09:46:05 51°18.763 2°49.498 287.8 10.5 284.3 9.8
2001-12-07 09:46:11 51°18.767 2°49.471 288 10.5 284.1 9.7
2001-12-07 09:46:15 51°18.77 2°49.452 287.8 10.6 284.1 9.8
2001-12-07 09:46:20 51°18.774 2°49.43 287.7 10.5 284.1 9.8
2001-12-07 09:46:24 51°18.777 2°49.412 287.7 10.5 284 9.8
2001-12-07 09:46:30 51°18.781 2°49.384 287.5 10.6 284.5 9.8
2001-12-07 09:46:35 51°18.785 2°49.362 287.3 10.6 284.3 9.9
2001-12-07 09:46:39 51°18.788 2°49.344 288 10.6 284.4 9.9
2001-12-07 09:46:45 51°18.792 2°49.316 287.7 10.6 284.2 10.2
2001-12-07 09:46:49 51°18.795 2°49.298 288.3 10.6 284 10.3
2001-12-07 09:46:54 51°18.799 2°49.275 287.8 10.6 284 10.4
2001-12-07 09:46:59 51°18.803 2°49.253 288.3 10.6 284.6 10.1
2001-12-07 09:47:05 51°18.807 2°49.225 287.7 10.6 284.4 10.4
2001-12-07 09:47:09 51°18.81 2°49.207 288 10.6 284.3 10.4
2001-12-07 09:47:16 51°18.815 2°49.176 287.7 10.6 284.1 10.4
2001-12-07 09:47:20 51°18.818 2°49.157 287.7 10.6 284.1 10.2
2001-12-07 09:47:25 51°18.822 2°49.135 287.7 10.5 284.2 10.3
2001-12-07 09:47:30 51°18.825 2°49.112 287.5 10.5 284.5 10.3
2001-12-07 09:47:35 51°18.829 2°49.089 287.3 10.5 284.1 10.4
2001-12-07 09:47:40 51°18.833 2°49.067 287.5 10.5 284.5 10.4
2001-12-07 09:47:45 51°18.836 2°49.044 287.2 10.5 283.9 10.6
2001-12-07 09:47:50 51°18.84 2°49.022 287.5 10.6 284.3 10.6
2001-12-07 09:47:55 51°18.843 2°48.999 287.5 10.6 284.1 10.5
2001-12-07 09:48:00 51°18.847 2°48.976 288 10.6 284.1 10.6
2001-12-07 09:48:05 51°18.85 2°48.954 288.2 10.6 284.5 10.7
2001-12-07 09:48:10 51°18.854 2°48.931 288.3 10.6 284.7 11.1
2001-12-07 09:48:15 51°18.858 2°48.908 288.2 10.6 284.8 11.3
2001-12-07 09:48:20 51°18.862 2°48.886 288.2 10.6 284.8 11.1
2001-12-07 09:48:25 51°18.866 2°48.863 288.5 10.6 284.8 11.4
2001-12-07 09:48:29 51°18.868 2°48.845 288.3 10.6 284.6 11.3
2001-12-07 09:48:35 51°18.873 2°48.818 288.5 10.6 284.8 11.7
2001-12-07 09:48:40 51°18.877 2°48.795 288.2 10.5 284.6 12
2001-12-07 09:48:44 51°18.88 2°48.777 287.8 10.5 284.8 12.1
2001-12-07 09:48:49 51°18.883 2°48.755 288.2 10.5 284.4 12.3
2001-12-07 09:48:55 51°18.888 2°48.728 288 10.5 284.7 12.6
2001-12-07 09:48:59 51°18.891 2°48.71 287.8 10.5 284.1 12.8
2001-12-07 09:49:04 51°18.894 2°48.687 288 10.5 284.2 13
2001-12-07 09:49:10 51°18.898 2°48.66 287.7 10.5 284.2 13.2
2001-12-07 09:49:15 51°18.902 2°48.638 287.5 10.5 284.1 13.2
2001-12-07 09:49:20 51°18.905 2°48.615 287.3 10.5 284 13.2
2001-12-07 09:49:26 51°18.91 2°48.588 287.5 10.5 284 13.2
2001-12-07 09:49:29 51°18.912 2°48.575 287.7 10.4 283.9 13.1
2001-12-07 09:49:35 51°18.916 2°48.548 287.8 10.5 283.9 13.1
2001-12-07 09:49:40 51°18.92 2°48.525 287.8 10.5 284.1 13.1
2001-12-07 09:49:45 51°18.923 2°48.503 288 10.5 283.8 13.1
2001-12-07 09:49:49 51°18.926 2°48.485 288 10.5 283.8 13.4
2001-12-07 09:49:54 51°18.93 2°48.463 288.2 10.5 284.3 13.6
2001-12-07 09:50:00 51°18.934 2°48.436 287.8 10.5 284 13.7
2001-12-07 09:50:04 51°18.937 2°48.418 287.7 10.5 284 14
2001-12-07 09:50:10 51°18.941 2°48.39 287.8 10.5 283.5 14.2
2001-12-07 09:50:14 51°18.943 2°48.372 288.2 10.5 283.4 14.5
2001-12-07 09:50:21 51°18.948 2°48.341 287.7 10.5 283.2 14.5
2001-12-07 09:50:25 51°18.951 2°48.323 287.7 10.5 282.9 14.8
2001-12-07 09:50:29 51°18.954 2°48.305 287.7 10.5 283.4 15
2001-12-07 09:50:34 51°18.957 2°48.282 287.7 10.5 283.4 15.1
2001-12-07 09:50:40 51°18.961 2°48.255 287.8 10.5 283.5 15.3
2001-12-07 09:50:46 51°18.965 2°48.228 288.2 10.5 283.5 15.4
2001-12-07 09:50:50 51°18.968 2°48.21 288.2 10.5 283.4 15.6
2001-12-07 09:50:55 51°18.971 2°48.187 288 10.5 283.7 15.8
2001-12-07 09:51:00 51°18.974 2°48.165 288.3 10.5 283.5 16
2001-12-07 09:51:05 51°18.978 2°48.142 288.2 10.5 283.4 16
2001-12-07 09:51:09 51°18.98 2°48.124 287.8 10.5 283.3 16.2
2001-12-07 09:51:15 51°18.984 2°48.097 287.8 10.5 283.3 16.3
2001-12-07 09:51:21 51°18.988 2°48.069 288 10.5 283 16.4
2001-12-07 09:51:26 51°18.991 2°48.047 288 10.5 282.6 16.2
2001-12-07 09:51:30 51°18.994 2°48.029 287.8 10.5 282.8 16.6
2001-12-07 09:51:35 51°18.997 2°48.006 287.8 10.5 282.8 16.8
2001-12-07 09:51:39 51°18.999 2°47.988 287.8 10.5 282.5 16.9
2001-12-07 09:51:45 51°19.003 2°47.961 288.2 10.5 283 17
2001-12-07 09:51:51 51°19.007 2°47.934 288.5 10.5 282.9 17.2
2001-12-07 09:51:56 51°19.01 2°47.911 288 10.5 282.9 17.3
2001-12-07 09:52:01 51°19.014 2°47.888 288.2 10.5 282.9 17.4
2001-12-07 09:52:04 51°19.015 2°47.874 288.2 10.5 282.7 17.5
2001-12-07 09:52:10 51°19.019 2°47.847 288.2 10.5 282.7 17.6
2001-12-07 09:52:15 51°19.022 2°47.825 288.2 10.5 282.7 17.5
2001-12-07 09:52:21 51°19.026 2°47.797 288.3 10.5 282.5 17.7
2001-12-07 09:52:26 51°19.029 2°47.775 288 10.5 282.5 17.8
2001-12-07 09:52:30 51°19.032 2°47.757 288 10.5 282.5 17.8
2001-12-07 09:52:34 51°19.034 2°47.738 287.8 10.5 282.2 18
2001-12-07 09:52:39 51°19.037 2°47.716 288 10.5 282.5 18
2001-12-07 09:52:45 51°19.041 2°47.689 287.8 10.5 282.2 18.1
2001-12-07 09:52:50 51°19.044 2°47.666 287.7 10.4 282.6 18.2
2001-12-07 09:52:55 51°19.047 2°47.644 288.3 10.4 282.7 18.3
2001-12-07 09:53:01 51°19.051 2°47.616 288.2 10.5 282.8 18.5
2001-12-07 09:53:06 51°19.054 2°47.594 288 10.5 283.1 18.6
2001-12-07 09:53:10 51°19.057 2°47.576 288.2 10.5 283 18.7
2001-12-07 09:53:16 51°19.061 2°47.548 287.8 10.5 283 18.9
2001-12-07 09:53:19 51°19.063 2°47.535 288.2 10.5 283.1 19
2001-12-07 09:53:26 51°19.067 2°47.503 287.8 10.5 282.4 19.1
2001-12-07 09:53:30 51°19.07 2°47.485 287.8 10.5 283.1 19.2
2001-12-07 09:53:36 51°19.074 2°47.458 288 10.5 282.8 19.3
2001-12-07 09:53:41 51°19.077 2°47.435 287.8 10.5 282.9 19.4
2001-12-07 09:53:45 51°19.08 2°47.417 288.2 10.5 282.8 19.5
2001-12-07 09:53:50 51°19.083 2°47.395 288 10.5 283.3 19.6
2001-12-07 09:53:55 51°19.087 2°47.372 287.8 10.5 283.3 19.3
2001-12-07 09:54:01 51°19.091 2°47.345 287.8 10.5 283.1 19.5
2001-12-07 09:54:05 51°19.093 2°47.327 287.7 10.5 282.9 19.6
2001-12-07 09:54:09 51°19.096 2°47.309 287.8 10.5 283.1 19.7
2001-12-07 09:54:15 51°19.1 2°47.281 287.8 10.5 282.7 19.7
2001-12-07 09:54:20 51°19.103 2°47.259 288 10.5 282.7 19.9